LEMG/AGP METAR and TAF weather

Enter ICAO airport designator
Station Type Date Time Source
LEMG METAR 2021/02/27 04:00 UTC NOAA

LEMG 270400Z 12010KT 090V150 9999 FEW020 BKN030 14/10 Q1024 NOSIG


Station Type Date Time Source
LEMG Decoded METAR 2021/02/27 04:00 UTC NOAA

Malaga / Aeropuerto, Spain (LEMG) 36-40N 004-29W 7M
Feb 26, 2021 - 11:00 PM EST / 2021.02.27 0400 UTC
Wind: from the ESE (120 degrees) at 12 MPH (10 KT) (direction variable):0
Visibility: greater than 7 mile(s):0
Sky conditions: mostly cloudy
Temperature: 57 F (14 C)
Dew Point: 50 F (10 C)
Relative Humidity: 76%
Pressure (altimeter): 30.24 in. Hg (1024 hPa)
ob: LEMG 270400Z 12010KT 090V150 9999 FEW020 BKN030 14/10 Q1024 NOSIG
cycle: 4

Station Type Date Time Source
LEMG TAF 2021/02/27 01:49 UTC NOAA

TAF
AMD LEMG 270137Z 2701/2724 12008KT 9999 FEW020 BKN030 TX17/2713Z TN11/2706Z
BECMG 2702/2705 VRB02KT PROB30
TEMPO 2705/2709 29006KT
BECMG 2711/2714 14008KT
BECMG 2717/2720 VRB02KT

Example: see airport list